createdAt,value
2019-04-11T00:00:04.540Z,929.94
2019-04-11T00:00:21.446Z,930.02
2019-04-11T00:00:36.443Z,930.01
2019-04-11T00:00:53.111Z,929.97
2019-04-11T00:01:10.071Z,929.95
2019-04-11T00:01:48.501Z,929.95
2019-04-11T00:02:06.691Z,929.99
2019-04-11T00:02:22.669Z,929.98
2019-04-11T00:02:38.525Z,930.01
2019-04-11T00:02:55.203Z,930.04
2019-04-11T00:03:11.316Z,930.01
2019-04-11T00:03:27.133Z,930.03
2019-04-11T00:03:43.849Z,930.01
2019-04-11T00:03:59.660Z,930.04
2019-04-11T00:04:15.692Z,930
2019-04-11T00:04:32.290Z,930
2019-04-11T00:04:48.203Z,930
2019-04-11T00:05:04.339Z,930
2019-04-11T00:05:18.901Z,929.98
2019-04-11T00:05:37.039Z,930
2019-04-11T00:05:52.859Z,930.04
2019-04-11T00:06:09.560Z,930.08
2019-04-11T00:06:25.624Z,930.06
2019-04-11T00:06:41.417Z,930.07
2019-04-11T00:06:58.106Z,930.02
2019-04-11T00:07:14.171Z,930.01
2019-04-11T00:07:30.115Z,930
2019-04-11T00:07:46.697Z,930
2019-04-11T00:08:03.789Z,929.97
2019-04-11T00:08:19.641Z,929.98
2019-04-11T00:08:37.121Z,929.99
2019-04-11T00:08:52.307Z,929.94
2019-04-11T00:09:08.158Z,929.95
2019-04-11T00:09:24.561Z,929.96
2019-04-11T00:09:40.784Z,929.99
2019-04-11T00:09:56.729Z,929.94
2019-04-11T00:10:12.948Z,929.97
2019-04-11T00:10:27.108Z,929.97
2019-04-11T00:10:43.622Z,929.97
2019-04-11T00:10:59.597Z,929.96
2019-04-11T00:11:14.570Z,929.95
2019-04-11T00:11:31.232Z,930.02
2019-04-11T00:11:48.254Z,929.98
2019-04-11T00:12:03.142Z,929.94
2019-04-11T00:12:19.739Z,929.94
2019-04-11T00:12:36.492Z,929.97
2019-04-11T00:12:51.641Z,929.96
2019-04-11T00:13:29.923Z,929.98
2019-04-11T00:13:49.411Z,929.94
2019-04-11T00:14:05.298Z,929.98
2019-04-11T00:14:22.044Z,929.94
2019-04-11T00:14:37.936Z,929.89
2019-04-11T00:14:55.963Z,929.95
2019-04-11T00:15:13.771Z,929.92
2019-04-11T00:15:30.682Z,929.92
2019-04-11T00:15:45.560Z,929.95
2019-04-11T00:16:02.354Z,929.94
2019-04-11T00:16:19.387Z,929.92
2019-04-11T00:16:34.170Z,929.93
2019-04-11T00:16:50.906Z,929.9
2019-04-11T00:17:07.742Z,929.94
2019-04-11T00:17:22.694Z,929.91
2019-04-11T00:17:39.361Z,929.95
2019-04-11T00:17:56.432Z,929.92
2019-04-11T00:18:11.404Z,929.92
2019-04-11T00:18:28.104Z,929.95
2019-04-11T00:18:44.987Z,929.92
2019-04-11T00:18:59.961Z,929.9
2019-04-11T00:19:16.701Z,929.96
2019-04-11T00:19:33.605Z,929.92
2019-04-11T00:19:48.590Z,929.92
2019-04-11T00:20:05.284Z,929.92
2019-04-11T00:20:22.120Z,929.89
2019-04-11T00:20:38.133Z,929.92
2019-04-11T00:20:54.631Z,929.94
2019-04-11T00:21:10.785Z,929.91
2019-04-11T00:21:25.728Z,929.88
2019-04-11T00:21:42.392Z,929.9
2019-04-11T00:21:57.287Z,929.95
2019-04-11T00:22:14.225Z,929.98
2019-04-11T00:22:30.916Z,929.94
2019-04-11T00:22:47.842Z,929.94
2019-04-11T00:23:03.854Z,929.94
2019-04-11T00:23:20.230Z,929.93
2019-04-11T00:23:36.455Z,929.94
2019-04-11T00:23:51.355Z,929.94
2019-04-11T00:24:08.073Z,929.92
2019-04-11T00:24:25.027Z,929.96
2019-04-11T00:24:39.854Z,929.89
2019-04-11T00:24:55.422Z,929.91
2019-04-11T00:25:13.499Z,929.95
2019-04-11T00:25:28.613Z,929.9
2019-04-11T00:25:45.098Z,929.89
2019-04-11T00:26:02.117Z,929.9
2019-04-11T00:26:17.078Z,929.86
2019-04-11T00:26:33.731Z,929.88
2019-04-11T00:26:50.676Z,929.91
2019-04-11T00:27:05.674Z,929.87
2019-04-11T00:27:22.244Z,929.95
2019-04-11T00:27:39.210Z,929.92
2019-04-11T00:27:54.195Z,929.9
2019-04-11T00:28:10.842Z,929.88
2019-04-11T00:28:27.750Z,929.92
2019-04-11T00:28:42.761Z,929.91
2019-04-11T00:28:59.365Z,929.89
2019-04-11T00:29:16.364Z,929.92
2019-04-11T00:29:31.348Z,929.91
2019-04-11T00:29:48.021Z,929.9
2019-04-11T00:30:05.944Z,929.88
2019-04-11T00:30:20.909Z,929.86
2019-04-11T00:30:37.603Z,929.85
2019-04-11T00:30:54.560Z,929.87
2019-04-11T00:31:09.544Z,929.89
2019-04-11T00:31:26.180Z,929.85
2019-04-11T00:31:43.130Z,929.89
2019-04-11T00:31:59.055Z,929.91
2019-04-11T00:32:19.077Z,929.9
2019-04-11T00:32:35.780Z,929.86
2019-04-11T00:32:51.818Z,929.9
2019-04-11T00:33:07.844Z,929.91
2019-04-11T00:33:24.779Z,929.88
2019-04-11T00:33:40.318Z,929.9
2019-04-11T00:33:56.322Z,929.87
2019-04-11T00:34:12.939Z,929.93
2019-04-11T00:34:28.930Z,929.9
2019-04-11T00:34:44.851Z,929.95
2019-04-11T00:35:01.532Z,929.95
2019-04-11T00:35:17.568Z,929.94
2019-04-11T00:35:33.552Z,929.94
2019-04-11T00:35:50.104Z,929.93
2019-04-11T00:36:06.278Z,929.95
2019-04-11T00:36:22.199Z,929.89
2019-04-11T00:36:38.767Z,929.93
2019-04-11T00:36:54.793Z,929.94
2019-04-11T00:37:10.706Z,929.94
2019-04-11T00:37:27.313Z,929.97
2019-04-11T00:37:43.353Z,930
2019-04-11T00:37:59.296Z,929.93
2019-04-11T00:38:15.899Z,929.93
2019-04-11T00:38:32.021Z,929.91
2019-04-11T00:38:47.816Z,929.95
2019-04-11T00:39:05.544Z,929.97
2019-04-11T00:39:21.482Z,929.97
2019-04-11T00:39:37.529Z,929.96
2019-04-11T00:39:54.094Z,929.93
2019-04-11T00:40:08.956Z,929.95
2019-04-11T00:40:26.950Z,929.97
2019-04-11T00:40:43.691Z,929.97
2019-04-11T00:40:59.684Z,929.91
2019-04-11T00:41:15.463Z,929.96
2019-04-11T00:41:32.332Z,929.97
2019-04-11T00:41:48.130Z,929.96
2019-04-11T00:42:04.074Z,929.94
2019-04-11T00:42:20.732Z,929.93
2019-04-11T00:42:36.682Z,929.95
2019-04-11T00:42:52.613Z,929.99
2019-04-11T00:43:09.376Z,929.98
2019-04-11T00:43:45.685Z,929.96
2019-04-11T00:44:03.428Z,929.97
2019-04-11T00:44:16.845Z,929.95
2019-04-11T00:44:32.751Z,929.99
2019-04-11T00:44:49.509Z,929.96
2019-04-11T00:45:05.323Z,929.96
2019-04-11T00:45:21.264Z,929.94
2019-04-11T00:45:38.017Z,929.96
2019-04-11T00:45:53.964Z,929.9
2019-04-11T00:46:11.928Z,929.97
2019-04-11T00:46:29.752Z,929.94
2019-04-11T00:46:46.640Z,929.96
2019-04-11T00:47:01.597Z,929.93
2019-04-11T00:47:18.164Z,929.92
2019-04-11T00:47:35.160Z,929.94
2019-04-11T00:47:51.234Z,929.96
2019-04-11T00:48:09.003Z,929.9
2019-04-11T00:48:27.902Z,929.93
2019-04-11T00:48:43.903Z,929.94
2019-04-11T00:49:01.940Z,929.95
2019-04-11T00:49:19.754Z,929.95
2019-04-11T00:49:36.637Z,929.94
2019-04-11T00:49:51.569Z,929.93
2019-04-11T00:50:08.507Z,929.95
2019-04-11T00:50:25.248Z,929.97
2019-04-11T00:50:41.316Z,929.92
2019-04-11T00:50:57.869Z,929.92
2019-04-11T00:51:13.899Z,929.94
2019-04-11T00:51:29.834Z,929.95
2019-04-11T00:51:46.336Z,929.94
2019-04-11T00:52:02.528Z,929.93
2019-04-11T00:52:17.287Z,929.94
2019-04-11T00:52:33.586Z,929.96
2019-04-11T00:52:51.654Z,929.94
2019-04-11T00:53:06.631Z,929.97
2019-04-11T00:53:23.318Z,929.99
2019-04-11T00:53:40.315Z,929.99
2019-04-11T00:53:55.246Z,929.94
2019-04-11T00:54:11.874Z,930
2019-04-11T00:54:28.872Z,930.03
2019-04-11T00:54:45.171Z,930.02
2019-04-11T00:55:01.378Z,930
2019-04-11T00:55:17.501Z,930.05
2019-04-11T00:55:32.539Z,930
2019-04-11T00:55:49.105Z,929.99
2019-04-11T00:56:06.109Z,929.99
2019-04-11T00:56:22.082Z,929.99
2019-04-11T00:56:38.537Z,930.03
2019-04-11T00:56:54.687Z,930
2019-04-11T00:57:09.571Z,930.03
2019-04-11T00:57:26.261Z,930.02
2019-04-11T00:57:43.151Z,930.04
2019-04-11T00:57:58.194Z,930.05
2019-04-11T00:58:14.760Z,930.06
2019-04-11T00:58:31.834Z,930.05
2019-04-11T00:58:46.751Z,930.06
2019-04-11T00:59:03.530Z,930.04
2019-04-11T00:59:20.117Z,930.07
2019-04-11T00:59:35.246Z,930.05
2019-04-11T00:59:51.974Z,930.03
2019-04-11T01:00:09.020Z,930.08
2019-04-11T01:00:23.907Z,930.04
2019-04-11T01:00:40.867Z,930.05
2019-04-11T01:00:57.527Z,930.03
2019-04-11T01:01:12.471Z,930.06
2019-04-11T01:01:29.149Z,930.04
2019-04-11T01:01:44.987Z,930.04
2019-04-11T01:02:02.083Z,930.02
2019-04-11T01:02:18.732Z,930.04
2019-04-11T01:02:35.750Z,930.04
2019-04-11T01:02:55.819Z,930.04
2019-04-11T01:03:13.791Z,930.03
2019-04-11T01:03:31.524Z,930.02
2019-04-11T01:03:47.479Z,930.07
2019-04-11T01:04:03.278Z,930.05
2019-04-11T01:04:21.062Z,930.02
2019-04-11T01:04:37.025Z,930.04
2019-04-11T01:04:53.974Z,930.06
2019-04-11T01:05:10.610Z,930.05
2019-04-11T01:05:27.581Z,930.02
2019-04-11T01:05:42.658Z,930.05
2019-04-11T01:05:59.389Z,930.04
2019-04-11T01:06:16.153Z,930.02
2019-04-11T01:06:31.131Z,930.01
2019-04-11T01:06:47.688Z,930.04
2019-04-11T01:07:02.707Z,930.02
2019-04-11T01:07:19.643Z,930.07
2019-04-11T01:07:36.360Z,930.07
2019-04-11T01:07:53.368Z,930.03
2019-04-11T01:08:08.349Z,930.05
2019-04-11T01:08:24.980Z,930.04
2019-04-11T01:08:41.927Z,930.01
2019-04-11T01:08:56.861Z,930.05
2019-04-11T01:09:13.557Z,930.03
2019-04-11T01:09:30.503Z,930.05
2019-04-11T01:09:45.435Z,930
2019-04-11T01:10:00.809Z,930.01
2019-04-11T01:10:16.070Z,930.04
2019-04-11T01:10:32.023Z,930.04
2019-04-11T01:10:49.718Z,930.01
2019-04-11T01:11:05.686Z,930.03
2019-04-11T01:11:21.582Z,930.07
2019-04-11T01:11:36.200Z,930.05
2019-04-11T01:11:54.231Z,929.99
2019-04-11T01:12:10.146Z,930.01
2019-04-11T01:12:26.786Z,930.04
2019-04-11T01:12:42.920Z,929.98
2019-04-11T01:12:58.633Z,930
2019-04-11T01:13:15.700Z,930
2019-04-11T01:13:49.038Z,930.01
2019-04-11T01:14:09.836Z,929.98
2019-04-11T01:14:27.809Z,930.01
2019-04-11T01:14:44.820Z,930.01
2019-04-11T01:15:01.396Z,929.98
2019-04-11T01:15:17.445Z,929.98
2019-04-11T01:15:32.502Z,929.98
2019-04-11T01:15:49.982Z,930.01
2019-04-11T01:16:07.050Z,929.98
2019-04-11T01:16:20.836Z,929.99
2019-04-11T01:16:34.843Z,930
2019-04-11T01:16:50.647Z,929.98
2019-04-11T01:17:07.806Z,930
2019-04-11T01:17:23.308Z,929.97
2019-04-11T01:17:39.218Z,930
2019-04-11T01:17:55.901Z,929.99
2019-04-11T01:18:11.821Z,929.99
2019-04-11T01:18:29.642Z,929.96
2019-04-11T01:18:46.458Z,929.97
2019-04-11T01:19:02.467Z,929.98
2019-04-11T01:19:19.519Z,929.99
2019-04-11T01:19:36.167Z,929.98
2019-04-11T01:19:53.156Z,930
2019-04-11T01:20:08.106Z,929.97
2019-04-11T01:20:24.876Z,930.02
2019-04-11T01:20:41.796Z,930
2019-04-11T01:20:56.805Z,929.96
2019-04-11T01:21:13.360Z,930
2019-04-11T01:21:30.533Z,929.99
2019-04-11T01:21:45.614Z,930.02
2019-04-11T01:22:02.366Z,930.01
2019-04-11T01:22:20.202Z,930
2019-04-11T01:22:35.093Z,929.98
2019-04-11T01:22:51.812Z,929.94
2019-04-11T01:23:08.935Z,929.95
2019-04-11T01:23:23.822Z,929.96
2019-04-11T01:23:40.484Z,929.94
2019-04-11T01:23:57.474Z,929.99
2019-04-11T01:24:12.452Z,929.99
2019-04-11T01:24:29.081Z,929.97
2019-04-11T01:24:43.975Z,929.99
2019-04-11T01:25:00.929Z,929.95
2019-04-11T01:25:17.792Z,929.94
2019-04-11T01:25:34.682Z,929.97
2019-04-11T01:25:49.674Z,929.97
2019-04-11T01:26:06.342Z,930
2019-04-11T01:26:23.231Z,929.94
2019-04-11T01:26:39.275Z,929.98
2019-04-11T01:26:55.807Z,929.93
2019-04-11T01:27:11.825Z,929.98
2019-04-11T01:27:26.796Z,929.97
2019-04-11T01:27:43.679Z,929.98
2019-04-11T01:28:00.531Z,929.95
2019-04-11T01:28:15.386Z,929.98
2019-04-11T01:28:30.977Z,929.97
2019-04-11T01:28:49.056Z,929.95
2019-04-11T01:29:04.115Z,929.97
2019-04-11T01:29:20.709Z,929.94
2019-04-11T01:29:37.686Z,929.98
2019-04-11T01:29:52.628Z,929.99
2019-04-11T01:30:09.194Z,930
2019-04-11T01:30:24.894Z,929.98
2019-04-11T01:30:41.944Z,930
2019-04-11T01:30:58.603Z,930.01
2019-04-11T01:31:14.100Z,930
2019-04-11T01:31:30.548Z,930.06
2019-04-11T01:31:47.332Z,930.06
2019-04-11T01:32:02.833Z,930.04
2019-04-11T01:32:19.083Z,930.12
2019-04-11T01:32:35.725Z,930.07
2019-04-11T01:32:52.686Z,930.07
2019-04-11T01:33:07.757Z,930.11
2019-04-11T01:33:24.031Z,930.1
2019-04-11T01:33:42.165Z,930.09
2019-04-11T01:33:57.174Z,930.1
2019-04-11T01:34:13.703Z,930.09
2019-04-11T01:34:30.765Z,930.12
2019-04-11T01:34:45.692Z,930.09
2019-04-11T01:35:02.292Z,930.12
2019-04-11T01:35:19.227Z,930.09
2019-04-11T01:35:34.326Z,930.1
2019-04-11T01:35:50.940Z,930.09
2019-04-11T01:36:06.934Z,930.12
2019-04-11T01:36:23.740Z,930.13
2019-04-11T01:36:40.447Z,930.09
2019-04-11T01:36:55.440Z,930.07
2019-04-11T01:37:12.436Z,930.09
2019-04-11T01:37:29.095Z,930.12
2019-04-11T01:37:46.033Z,930.12
2019-04-11T01:38:00.984Z,930.13
2019-04-11T01:38:17.546Z,930.11
2019-04-11T01:38:34.544Z,930.15
2019-04-11T01:38:49.536Z,930.14
2019-04-11T01:39:06.177Z,930.11
2019-04-11T01:39:23.159Z,930.13
2019-04-11T01:39:39.154Z,930.09
2019-04-11T01:39:55.805Z,930.09
2019-04-11T01:40:11.777Z,930.12
2019-04-11T01:40:26.618Z,930.11
2019-04-11T01:40:43.281Z,930.11
2019-04-11T01:41:00.231Z,930.11
2019-04-11T01:41:15.176Z,930.08
2019-04-11T01:41:31.941Z,930.13
2019-04-11T01:41:48.672Z,930.12
2019-04-11T01:42:03.840Z,930.09
2019-04-11T01:42:20.632Z,930.07
2019-04-11T01:42:37.475Z,930.1
2019-04-11T01:42:52.458Z,930.12
2019-04-11T01:43:09.144Z,930.1
2019-04-11T01:43:26.083Z,930.13
2019-04-11T01:43:59.170Z,930.07
2019-04-11T01:44:20.709Z,930.11
2019-04-11T01:44:38.592Z,930.11
2019-04-11T01:44:54.796Z,930.12
2019-04-11T01:45:11.513Z,930.14
2019-04-11T01:45:27.448Z,930.1
2019-04-11T01:45:43.326Z,930.12
2019-04-11T01:46:00.050Z,930.11
2019-04-11T01:46:14.021Z,930.1
2019-04-11T01:46:31.932Z,930.12
2019-04-11T01:46:48.399Z,930.1
2019-04-11T01:47:04.447Z,930.08
2019-04-11T01:47:20.468Z,930.1
2019-04-11T01:47:37.371Z,930.1
2019-04-11T01:47:53.124Z,930.08
2019-04-11T01:48:09.084Z,930.09
2019-04-11T01:48:25.667Z,930.09
2019-04-11T01:48:39.657Z,930.11
2019-04-11T01:48:57.639Z,930.07
2019-04-11T01:49:14.211Z,930.1
2019-04-11T01:49:30.314Z,930.07
2019-04-11T01:49:46.193Z,930.04
2019-04-11T01:50:02.984Z,930.08
2019-04-11T01:50:18.916Z,930.05
2019-04-11T01:50:34.895Z,930.04
2019-04-11T01:50:51.799Z,930.08
2019-04-11T01:51:07.439Z,930.07
2019-04-11T01:51:23.371Z,930.09
2019-04-11T01:51:39.988Z,930.09
2019-04-11T01:51:55.971Z,930.08
2019-04-11T01:52:13.912Z,930.08
2019-04-11T01:52:31.656Z,930.02
2019-04-11T01:52:48.659Z,929.99
2019-04-11T01:53:03.688Z,930.02
2019-04-11T01:53:20.283Z,930
2019-04-11T01:53:37.287Z,930.02
2019-04-11T01:53:53.195Z,930.03
2019-04-11T01:54:09.288Z,930.03
2019-04-11T01:54:25.859Z,929.98
2019-04-11T01:54:40.225Z,930.02
2019-04-11T01:54:57.418Z,930
2019-04-11T01:55:14.315Z,930.02
2019-04-11T01:55:29.333Z,930
2019-04-11T01:55:46.035Z,930.01
2019-04-11T01:56:03.086Z,929.97
2019-04-11T01:56:17.948Z,929.99
2019-04-11T01:56:34.634Z,930.01
2019-04-11T01:56:51.537Z,930.01
2019-04-11T01:57:06.498Z,930
2019-04-11T01:57:22.127Z,929.97
2019-04-11T01:57:40.236Z,929.99
2019-04-11T01:57:55.763Z,930
2019-04-11T01:58:11.868Z,929.99
2019-04-11T01:58:28.847Z,930
2019-04-11T01:58:43.758Z,930.01
2019-04-11T01:59:00.421Z,930
2019-04-11T01:59:17.341Z,930.02
2019-04-11T01:59:32.332Z,930.01
2019-04-11T01:59:48.943Z,930.02
2019-04-11T02:00:05.917Z,930.01
2019-04-11T02:00:21.861Z,930.01
2019-04-11T02:00:37.649Z,929.99
2019-04-11T02:00:54.639Z,930.02
2019-04-11T02:01:09.449Z,929.97
2019-04-11T02:01:26.082Z,929.96
2019-04-11T02:01:43.118Z,929.96
2019-04-11T02:01:58.018Z,929.98
2019-04-11T02:02:14.636Z,929.95
2019-04-11T02:02:29.285Z,929.95
2019-04-11T02:02:44.386Z,929.97
2019-04-11T02:03:01.176Z,929.98
2019-04-11T02:03:15.068Z,929.95
2019-04-11T02:03:32.981Z,929.98
2019-04-11T02:03:49.721Z,929.96
2019-04-11T02:04:05.809Z,929.91
2019-04-11T02:04:21.527Z,929.95
2019-04-11T02:04:38.523Z,929.92
2019-04-11T02:04:54.346Z,929.97
2019-04-11T02:05:10.413Z,929.94
2019-04-11T02:05:27.189Z,929.91
2019-04-11T02:05:43.223Z,929.94
2019-04-11T02:05:59.159Z,929.95
2019-04-11T02:06:15.898Z,929.91
2019-04-11T02:06:31.918Z,929.91
2019-04-11T02:06:47.854Z,929.93
2019-04-11T02:07:04.512Z,929.92
2019-04-11T02:07:20.522Z,929.94
2019-04-11T02:07:36.447Z,929.95
2019-04-11T02:07:53.150Z,929.93
2019-04-11T02:08:09.213Z,929.91
2019-04-11T02:08:25.020Z,929.91
2019-04-11T02:08:41.645Z,929.91
2019-04-11T02:08:57.709Z,929.9
2019-04-11T02:09:13.735Z,929.88
2019-04-11T02:09:30.372Z,929.86
2019-04-11T02:09:46.265Z,929.89
2019-04-11T02:10:02.477Z,929.87
2019-04-11T02:10:20.938Z,929.91
2019-04-11T02:10:39.115Z,929.9
2019-04-11T02:10:53.998Z,929.9
2019-04-11T02:11:10.704Z,929.89
2019-04-11T02:11:27.648Z,929.88
2019-04-11T02:11:42.590Z,929.9
2019-04-11T02:11:59.248Z,929.86
2019-04-11T02:12:16.158Z,929.89
2019-04-11T02:12:32.132Z,929.85
2019-04-11T02:12:48.717Z,929.85
2019-04-11T02:13:03.616Z,929.84
2019-04-11T02:13:19.543Z,929.86
2019-04-11T02:13:37.294Z,929.87
2019-04-11T02:14:04.982Z,929.86
2019-04-11T02:14:28.632Z,929.85
2019-04-11T02:14:45.887Z,929.88
2019-04-11T02:15:00.869Z,929.88
2019-04-11T02:15:17.501Z,929.87
2019-04-11T02:15:34.449Z,929.85
2019-04-11T02:15:49.471Z,929.88
2019-04-11T02:16:08.405Z,929.89
2019-04-11T02:16:27.167Z,929.86
2019-04-11T02:16:43.199Z,929.85
2019-04-11T02:17:01.209Z,929.91
2019-04-11T02:17:18.847Z,929.89
2019-04-11T02:17:34.916Z,929.89
2019-04-11T02:17:51.982Z,929.88
2019-04-11T02:18:08.610Z,929.88
2019-04-11T02:18:25.538Z,929.84
2019-04-11T02:18:40.417Z,929.87
2019-04-11T02:18:57.147Z,929.88
2019-04-11T02:19:14.121Z,929.83
2019-04-11T02:19:29.170Z,929.91
2019-04-11T02:19:45.776Z,929.87
2019-04-11T02:20:02.721Z,929.89
2019-04-11T02:20:17.245Z,929.89
2019-04-11T02:20:34.371Z,929.87
2019-04-11T02:20:51.316Z,929.86
2019-04-11T02:21:06.326Z,929.88
2019-04-11T02:21:22.952Z,929.88
2019-04-11T02:21:39.939Z,929.86
2019-04-11T02:21:54.868Z,929.87
2019-04-11T02:22:11.486Z,929.85
2019-04-11T02:22:28.475Z,929.87
2019-04-11T02:22:43.477Z,929.84
2019-04-11T02:23:00.155Z,929.9
2019-04-11T02:23:17.069Z,929.88
2019-04-11T02:23:32.010Z,929.88
2019-04-11T02:23:48.657Z,929.84
2019-04-11T02:24:05.690Z,929.87
2019-04-11T02:24:20.599Z,929.88
2019-04-11T02:24:37.281Z,929.86
2019-04-11T02:24:54.216Z,929.85
2019-04-11T02:25:10.225Z,929.89
2019-04-11T02:25:26.658Z,929.91
2019-04-11T02:25:42.814Z,929.88
2019-04-11T02:25:57.667Z,929.93
2019-04-11T02:26:14.473Z,929.86
2019-04-11T02:26:31.381Z,929.91
2019-04-11T02:26:52.311Z,929.92
2019-04-11T02:27:08.536Z,929.88
2019-04-11T02:27:25.967Z,929.9
2019-04-11T02:27:42.254Z,929.87
2019-04-11T02:27:58.093Z,929.89
2019-04-11T02:28:14.707Z,929.91
2019-04-11T02:28:30.815Z,929.9
2019-04-11T02:28:46.693Z,929.92
2019-04-11T02:29:03.448Z,929.91
2019-04-11T02:29:19.358Z,929.89
2019-04-11T02:29:35.423Z,929.89
2019-04-11T02:29:53.020Z,929.89
2019-04-11T02:30:11.158Z,929.89
2019-04-11T02:30:33.876Z,929.87
2019-04-11T02:30:57.526Z,929.89
2019-04-11T02:31:22.241Z,929.92
2019-04-11T02:31:40.108Z,929.86
2019-04-11T02:31:57.295Z,929.86
2019-04-11T02:32:21.173Z,929.86
2019-04-11T02:32:42.803Z,929.84
2019-04-11T02:33:02.357Z,929.87
2019-04-11T02:33:26.384Z,929.86
2019-04-11T02:33:44.488Z,929.91
2019-04-11T02:34:01.877Z,929.92
2019-04-11T02:34:21.322Z,929.9
2019-04-11T02:34:39.696Z,929.87
2019-04-11T02:35:07.653Z,929.9
2019-04-11T02:35:31.017Z,929.84
2019-04-11T02:35:51.828Z,929.88
2019-04-11T02:36:13.669Z,929.87
2019-04-11T02:36:32.099Z,929.86
2019-04-11T02:36:51.311Z,929.88
2019-04-11T02:37:10.911Z,929.89
2019-04-11T02:37:31.649Z,929.87
2019-04-11T02:37:54.707Z,929.87
2019-04-11T02:38:14.639Z,929.88
2019-04-11T02:38:34.750Z,929.89
2019-04-11T02:39:07.764Z,929.85
2019-04-11T02:39:38.515Z,929.91
2019-04-11T02:40:00.058Z,929.88
2019-04-11T02:40:17.628Z,929.85
2019-04-11T02:40:38.706Z,929.85
2019-04-11T02:40:58.793Z,929.85
2019-04-11T02:41:18.911Z,929.85
2019-04-11T02:41:39.717Z,929.84
2019-04-11T02:41:59.079Z,929.86
2019-04-11T02:42:18.988Z,929.82
2019-04-11T02:42:36.198Z,929.85
2019-04-11T02:42:54.847Z,929.85
2019-04-11T02:43:15.927Z,929.85
2019-04-11T02:43:36.492Z,929.85
2019-04-11T02:43:57.465Z,929.83
2019-04-11T02:45:16.221Z,929.8
2019-04-11T02:46:44.709Z,929.79
2019-04-11T02:47:39.091Z,929.78
2019-04-11T02:48:03.924Z,929.79
2019-04-11T02:48:26.878Z,929.8
2019-04-11T02:48:46.048Z,929.8
2019-04-11T02:49:08.102Z,929.77
2019-04-11T02:49:27.889Z,929.8
2019-04-11T02:49:45.608Z,929.76
2019-04-11T02:50:01.333Z,929.79
2019-04-11T02:50:26.758Z,929.8
2019-04-11T02:50:47.794Z,929.79
2019-04-11T02:51:05.666Z,929.81
2019-04-11T02:51:24.801Z,929.79
2019-04-11T02:51:40.778Z,929.82
2019-04-11T02:52:00.780Z,929.83
2019-04-11T02:52:17.527Z,929.8
2019-04-11T02:52:35.525Z,929.79
2019-04-11T02:52:54.077Z,929.78
2019-04-11T02:53:12.534Z,929.79
2019-04-11T02:53:34.860Z,929.8
2019-04-11T02:53:51.892Z,929.77
2019-04-11T02:54:13.597Z,929.8
2019-04-11T02:54:36.612Z,929.77
2019-04-11T02:54:54.499Z,929.74
2019-04-11T02:55:14.410Z,929.77
2019-04-11T02:55:31.642Z,929.75
2019-04-11T02:55:49.701Z,929.76
2019-04-11T02:56:09.206Z,929.76
2019-04-11T02:56:28.959Z,929.73
2019-04-11T02:56:50.238Z,929.74
2019-04-11T02:57:09.960Z,929.82
2019-04-11T02:57:26.937Z,929.78
2019-04-11T02:57:45.812Z,929.75
2019-04-11T02:58:07.687Z,929.77
2019-04-11T02:58:25.405Z,929.74
2019-04-11T02:58:46.375Z,929.72
2019-04-11T02:59:05.043Z,929.75
2019-04-11T02:59:22.672Z,929.72
2019-04-11T02:59:40.912Z,929.76
2019-04-11T03:00:01.979Z,929.74
2019-04-11T03:00:21.979Z,929.76
2019-04-11T03:00:44.840Z,929.74
2019-04-11T03:01:12.726Z,929.73
2019-04-11T03:01:31.701Z,929.73
2019-04-11T03:01:50.866Z,929.73
2019-04-11T03:02:11.554Z,929.78
2019-04-11T03:02:32.660Z,929.72
2019-04-11T03:02:54.285Z,929.72
2019-04-11T03:03:17.422Z,929.73
2019-04-11T03:03:37.153Z,929.71
2019-04-11T03:03:56.927Z,929.73
2019-04-11T03:04:16.674Z,929.68
2019-04-11T03:04:37.056Z,929.69
2019-04-11T03:04:57.595Z,929.7
2019-04-11T03:05:18.374Z,929.67
2019-04-11T03:05:37.391Z,929.68
2019-04-11T03:05:58.056Z,929.69
2019-04-11T03:06:17.501Z,929.66
2019-04-11T03:06:35.409Z,929.69
2019-04-11T03:06:53.193Z,929.66
2019-04-11T03:07:09.914Z,929.67
2019-04-11T03:07:29.979Z,929.69
2019-04-11T03:07:47.687Z,929.68
2019-04-11T03:08:11.946Z,929.7
2019-04-11T03:08:38.776Z,929.69
2019-04-11T03:08:57.500Z,929.66
2019-04-11T03:09:17.691Z,929.67
2019-04-11T03:09:37.408Z,929.64
2019-04-11T03:09:58.060Z,929.65
2019-04-11T03:10:20.936Z,929.66
2019-04-11T03:10:40.734Z,929.65
2019-04-11T03:10:59.485Z,929.67
2019-04-11T03:11:16.684Z,929.65
2019-04-11T03:11:36.680Z,929.64
2019-04-11T03:11:54.623Z,929.64
2019-04-11T03:12:15.383Z,929.65
2019-04-11T03:12:33.787Z,929.66
2019-04-11T03:12:54.529Z,929.64
2019-04-11T03:13:12.661Z,929.6
2019-04-11T03:13:30.660Z,929.65
2019-04-11T03:13:48.617Z,929.67
2019-04-11T03:14:09.749Z,929.67
2019-04-11T03:15:05.146Z,929.68
2019-04-11T03:16:51.548Z,929.68
2019-04-11T03:17:46.565Z,929.68
2019-04-11T03:18:54.318Z,929.68
2019-04-11T03:20:31.099Z,929.64
2019-04-11T03:21:21.808Z,929.65
2019-04-11T03:21:52.276Z,929.68
2019-04-11T03:22:12.123Z,929.63
2019-04-11T03:22:32.135Z,929.66
2019-04-11T03:23:02.409Z,929.68
2019-04-11T03:23:29.059Z,929.66
2019-04-11T03:23:49.305Z,929.64
2019-04-11T03:24:10.812Z,929.67
2019-04-11T03:24:31.489Z,929.65
2019-04-11T03:24:49.132Z,929.65
2019-04-11T03:25:09.764Z,929.66
2019-04-11T03:25:27.856Z,929.65
2019-04-11T03:25:46.885Z,929.66
2019-04-11T03:26:03.170Z,929.68
2019-04-11T03:26:22.979Z,929.66
2019-04-11T03:26:41.240Z,929.66
2019-04-11T03:27:04.881Z,929.66
2019-04-11T03:27:29.942Z,929.66
2019-04-11T03:27:49.440Z,929.66
2019-04-11T03:28:18.214Z,929.64
2019-04-11T03:28:50.090Z,929.65
2019-04-11T03:29:12.814Z,929.64
2019-04-11T03:29:31.366Z,929.66
2019-04-11T03:29:51.588Z,929.66
2019-04-11T03:30:31.543Z,929.67
2019-04-11T03:37:49.232Z,929.59
2019-04-11T03:40:04.140Z,929.57
2019-04-11T03:41:58.808Z,929.53
2019-04-11T03:43:37.510Z,929.53
2019-04-11T03:44:40.084Z,929.51
2019-04-11T03:46:37.233Z,929.49
2019-04-11T03:48:25.083Z,929.47
2019-04-11T03:49:48.908Z,929.45
2019-04-11T03:50:32.721Z,929.47
2019-04-11T03:50:55.259Z,929.48
2019-04-11T03:51:14.946Z,929.52
2019-04-11T03:51:31.735Z,929.44
2019-04-11T03:51:54.999Z,929.43
2019-04-11T03:52:14.951Z,929.47
2019-04-11T03:52:34.732Z,929.48
2019-04-11T03:52:51.735Z,929.44
2019-04-11T03:53:17.220Z,929.43
2019-04-11T03:53:43.171Z,929.45
2019-04-11T03:54:01.040Z,929.42
2019-04-11T03:54:19.160Z,929.43
2019-04-11T03:54:38.816Z,929.44
2019-04-11T03:55:00.427Z,929.39
2019-04-11T03:55:23.372Z,929.43
2019-04-11T03:55:41.113Z,929.45
2019-04-11T03:55:59.119Z,929.41
2019-04-11T03:56:21.343Z,929.48
2019-04-11T03:56:38.957Z,929.43
2019-04-11T03:56:55.207Z,929.41
2019-04-11T03:57:13.331Z,929.4
2019-04-11T03:57:31.800Z,929.41
2019-04-11T03:57:51.701Z,929.41
2019-04-11T03:58:15.331Z,929.46
2019-04-11T03:58:34.919Z,929.38
2019-04-11T03:58:55.311Z,929.39
2019-04-11T03:59:16.550Z,929.38
2019-04-11T03:59:40.523Z,929.41
2019-04-11T03:59:58.732Z,929.39
2019-04-11T04:00:21.623Z,929.38
2019-04-11T04:00:57.277Z,929.39
2019-04-11T04:01:25.098Z,929.4
2019-04-11T04:01:46.552Z,929.35
2019-04-11T04:02:05.690Z,929.34
2019-04-11T04:02:26.178Z,929.38
2019-04-11T04:02:44.366Z,929.41
2019-04-11T04:03:06.037Z,929.33
2019-04-11T04:03:24.544Z,929.32
2019-04-11T04:03:44.672Z,929.31
2019-04-11T04:04:04.704Z,929.32
2019-04-11T04:04:28.888Z,929.3
2019-04-11T04:04:46.782Z,929.32
2019-04-11T04:05:06.554Z,929.33
2019-04-11T04:05:23.741Z,929.29
2019-04-11T04:05:46.308Z,929.29
2019-04-11T04:06:08.883Z,929.3
2019-04-11T04:06:26.646Z,929.24
2019-04-11T04:06:45.739Z,929.29
2019-04-11T04:07:04.851Z,929.26